sensor_id;sensor_type;location;lat;lon;timestamp;temperature;humidity
19292;DHT22;9779;51.756;7.450;2024-02-14T00:01:51;7.80;99.90
19292;DHT22;9779;51.756;7.450;2024-02-14T00:04:16;7.80;1.00
19292;DHT22;9779;51.756;7.450;2024-02-14T00:06:42;7.80;1.00
19292;DHT22;9779;51.756;7.450;2024-02-14T00:09:08;7.90;1.00
19292;DHT22;9779;51.756;7.450;2024-02-14T00:11:34;7.80;1.00
19292;DHT22;9779;51.756;7.450;2024-02-14T00:14:00;7.90;1.00
19292;DHT22;9779;51.756;7.450;2024-02-14T00:16:27;7.90;1.00
19292;DHT22;9779;51.756;7.450;2024-02-14T00:18:54;7.90;1.00
19292;DHT22;9779;51.756;7.450;2024-02-14T00:21:19;7.90;1.00
19292;DHT22;9779;51.756;7.450;2024-02-14T00:23:45;7.90;1.00
19292;DHT22;9779;51.756;7.450;2024-02-14T00:26:11;7.90;1.00
19292;DHT22;9779;51.756;7.450;2024-02-14T00:28:36;7.90;1.00
19292;DHT22;9779;51.756;7.450;2024-02-14T00:31:02;7.80;1.00
19292;DHT22;9779;51.756;7.450;2024-02-14T00:33:28;7.80;1.00
19292;DHT22;9779;51.756;7.450;2024-02-14T00:35:53;7.80;16.00
19292;DHT22;9779;51.756;7.450;2024-02-14T00:38:19;7.80;57.50
19292;DHT22;9779;51.756;7.450;2024-02-14T00:40:45;7.70;99.90
19292;DHT22;9779;51.756;7.450;2024-02-14T00:43:10;7.70;99.90
19292;DHT22;9779;51.756;7.450;2024-02-14T00:45:36;7.70;99.90
19292;DHT22;9779;51.756;7.450;2024-02-14T00:48:04;7.70;99.90
19292;DHT22;9779;51.756;7.450;2024-02-14T00:50:29;7.70;99.90
19292;DHT22;9779;51.756;7.450;2024-02-14T00:52:55;7.60;99.90
19292;DHT22;9779;51.756;7.450;2024-02-14T00:55:20;7.60;99.90
19292;DHT22;9779;51.756;7.450;2024-02-14T00:57:46;7.60;99.90
19292;DHT22;9779;51.756;7.450;2024-02-14T01:00:12;7.50;99.90
19292;DHT22;9779;51.756;7.450;2024-02-14T01:02:38;7.50;99.90
19292;DHT22;9779;51.756;7.450;2024-02-14T01:05:04;7.50;99.90
19292;DHT22;9779;51.756;7.450;2024-02-14T01:07:30;7.50;99.90
19292;DHT22;9779;51.756;7.450;2024-02-14T01:09:56;7.50;99.90
19292;DHT22;9779;51.756;7.450;2024-02-14T01:12:21;7.50;99.90
19292;DHT22;9779;51.756;7.450;2024-02-14T01:14:47;7.50;99.90
19292;DHT22;9779;51.756;7.450;2024-02-14T01:17:13;7.50;99.90
19292;DHT22;9779;51.756;7.450;2024-02-14T01:19:38;7.50;99.90
19292;DHT22;9779;51.756;7.450;2024-02-14T01:22:04;7.50;99.90
19292;DHT22;9779;51.756;7.450;2024-02-14T01:24:29;7.50;99.90
19292;DHT22;9779;51.756;7.450;2024-02-14T01:26:55;7.50;99.90
19292;DHT22;9779;51.756;7.450;2024-02-14T01:29:21;7.50;99.90
19292;DHT22;9779;51.756;7.450;2024-02-14T01:31:48;7.50;99.90
19292;DHT22;9779;51.756;7.450;2024-02-14T01:34:14;7.50;99.90
19292;DHT22;9779;51.756;7.450;2024-02-14T01:36:40;7.50;99.90
19292;DHT22;9779;51.756;7.450;2024-02-14T01:39:06;7.50;99.90
19292;DHT22;9779;51.756;7.450;2024-02-14T01:41:36;7.50;99.90
19292;DHT22;9779;51.756;7.450;2024-02-14T01:44:01;7.50;99.90
19292;DHT22;9779;51.756;7.450;2024-02-14T01:46:27;7.50;99.90
19292;DHT22;9779;51.756;7.450;2024-02-14T01:48:53;7.50;99.90
19292;DHT22;9779;51.756;7.450;2024-02-14T01:51:20;7.50;99.90
19292;DHT22;9779;51.756;7.450;2024-02-14T01:53:47;7.50;99.90
19292;DHT22;9779;51.756;7.450;2024-02-14T01:56:13;7.60;99.90
19292;DHT22;9779;51.756;7.450;2024-02-14T01:58:38;7.60;99.90
19292;DHT22;9779;51.756;7.450;2024-02-14T02:01:04;7.60;99.90
19292;DHT22;9779;51.756;7.450;2024-02-14T02:03:30;7.60;99.90
19292;DHT22;9779;51.756;7.450;2024-02-14T02:06:01;7.60;99.90
19292;DHT22;9779;51.756;7.450;2024-02-14T02:08:26;7.60;99.90
19292;DHT22;9779;51.756;7.450;2024-02-14T02:10:52;7.60;99.90
19292;DHT22;9779;51.756;7.450;2024-02-14T02:13:18;7.60;99.90
19292;DHT22;9779;51.756;7.450;2024-02-14T02:15:45;7.60;99.90
19292;DHT22;9779;51.756;7.450;2024-02-14T02:18:10;7.60;99.90
19292;DHT22;9779;51.756;7.450;2024-02-14T02:20:36;7.60;99.90
19292;DHT22;9779;51.756;7.450;2024-02-14T02:23:02;7.60;99.90
19292;DHT22;9779;51.756;7.450;2024-02-14T02:25:28;7.70;99.90
19292;DHT22;9779;51.756;7.450;2024-02-14T02:27:54;7.70;99.90
19292;DHT22;9779;51.756;7.450;2024-02-14T02:30:22;7.70;99.90
19292;DHT22;9779;51.756;7.450;2024-02-14T02:32:48;7.70;99.90
19292;DHT22;9779;51.756;7.450;2024-02-14T02:35:15;7.70;99.90
19292;DHT22;9779;51.756;7.450;2024-02-14T02:37:41;7.70;99.90
19292;DHT22;9779;51.756;7.450;2024-02-14T02:40:08;7.80;99.90
19292;DHT22;9779;51.756;7.450;2024-02-14T02:42:36;7.80;99.90
19292;DHT22;9779;51.756;7.450;2024-02-14T02:45:01;7.70;99.90
19292;DHT22;9779;51.756;7.450;2024-02-14T02:47:32;7.80;99.90
19292;DHT22;9779;51.756;7.450;2024-02-14T02:49:57;7.80;99.90
19292;DHT22;9779;51.756;7.450;2024-02-14T02:52:25;7.80;99.90
19292;DHT22;9779;51.756;7.450;2024-02-14T02:54:51;7.80;99.90
19292;DHT22;9779;51.756;7.450;2024-02-14T02:57:18;7.80;99.90
19292;DHT22;9779;51.756;7.450;2024-02-14T02:59:44;7.80;99.90
19292;DHT22;9779;51.756;7.450;2024-02-14T03:02:11;7.80;99.90
19292;DHT22;9779;51.756;7.450;2024-02-14T03:04:38;7.80;99.90
19292;DHT22;9779;51.756;7.450;2024-02-14T03:07:03;7.90;99.90
19292;DHT22;9779;51.756;7.450;2024-02-14T03:09:29;7.90;99.90
19292;DHT22;9779;51.756;7.450;2024-02-14T03:11:55;7.90;99.90
19292;DHT22;9779;51.756;7.450;2024-02-14T03:14:22;7.90;99.90
19292;DHT22;9779;51.756;7.450;2024-02-14T03:16:48;7.90;99.90
19292;DHT22;9779;51.756;7.450;2024-02-14T03:19:13;8.00;99.90
19292;DHT22;9779;51.756;7.450;2024-02-14T03:21:39;8.00;99.90
19292;DHT22;9779;51.756;7.450;2024-02-14T03:24:05;8.00;99.90
19292;DHT22;9779;51.756;7.450;2024-02-14T03:26:33;8.00;99.90
19292;DHT22;9779;51.756;7.450;2024-02-14T03:29:03;8.00;99.90
19292;DHT22;9779;51.756;7.450;2024-02-14T03:31:32;8.00;99.90
19292;DHT22;9779;51.756;7.450;2024-02-14T03:33:58;8.00;99.90
19292;DHT22;9779;51.756;7.450;2024-02-14T03:36:23;8.10;99.90
19292;DHT22;9779;51.756;7.450;2024-02-14T03:38:52;8.10;99.90
19292;DHT22;9779;51.756;7.450;2024-02-14T03:41:18;8.10;99.90
19292;DHT22;9779;51.756;7.450;2024-02-14T03:43:43;8.10;99.90
19292;DHT22;9779;51.756;7.450;2024-02-14T03:46:09;8.20;99.90
19292;DHT22;9779;51.756;7.450;2024-02-14T03:48:34;8.10;99.90
19292;DHT22;9779;51.756;7.450;2024-02-14T03:51:01;8.20;99.90
19292;DHT22;9779;51.756;7.450;2024-02-14T03:53:26;8.20;99.90
19292;DHT22;9779;51.756;7.450;2024-02-14T03:55:52;8.10;99.90
19292;DHT22;9779;51.756;7.450;2024-02-14T03:58:19;8.10;99.90
19292;DHT22;9779;51.756;7.450;2024-02-14T04:00:51;8.10;99.90
19292;DHT22;9779;51.756;7.450;2024-02-14T04:03:17;8.10;99.90
19292;DHT22;9779;51.756;7.450;2024-02-14T04:05:43;8.10;99.90
19292;DHT22;9779;51.756;7.450;2024-02-14T04:08:08;8.00;99.90
19292;DHT22;9779;51.756;7.450;2024-02-14T04:10:36;8.00;99.90
19292;DHT22;9779;51.756;7.450;2024-02-14T04:13:03;8.00;99.90
19292;DHT22;9779;51.756;7.450;2024-02-14T04:15:33;8.00;99.90
19292;DHT22;9779;51.756;7.450;2024-02-14T04:17:58;8.00;99.90
19292;DHT22;9779;51.756;7.450;2024-02-14T04:20:25;8.00;99.90
19292;DHT22;9779;51.756;7.450;2024-02-14T04:22:51;8.00;99.90
19292;DHT22;9779;51.756;7.450;2024-02-14T04:25:17;8.00;99.90
19292;DHT22;9779;51.756;7.450;2024-02-14T04:27:44;8.00;99.90
19292;DHT22;9779;51.756;7.450;2024-02-14T04:30:10;8.00;99.90
19292;DHT22;9779;51.756;7.450;2024-02-14T04:32:35;8.00;99.90
19292;DHT22;9779;51.756;7.450;2024-02-14T04:35:01;8.00;99.90
19292;DHT22;9779;51.756;7.450;2024-02-14T04:37:27;8.00;99.90
19292;DHT22;9779;51.756;7.450;2024-02-14T04:39:52;8.00;99.90
19292;DHT22;9779;51.756;7.450;2024-02-14T04:42:18;8.00;99.90
19292;DHT22;9779;51.756;7.450;2024-02-14T04:44:43;8.00;99.90
19292;DHT22;9779;51.756;7.450;2024-02-14T04:47:09;8.00;99.90
19292;DHT22;9779;51.756;7.450;2024-02-14T04:49:35;8.00;99.90
19292;DHT22;9779;51.756;7.450;2024-02-14T04:52:01;8.00;99.90
19292;DHT22;9779;51.756;7.450;2024-02-14T04:54:26;8.00;99.90
19292;DHT22;9779;51.756;7.450;2024-02-14T04:56:54;8.00;99.90
19292;DHT22;9779;51.756;7.450;2024-02-14T04:59:19;8.00;99.90
19292;DHT22;9779;51.756;7.450;2024-02-14T05:01:45;8.10;99.90
19292;DHT22;9779;51.756;7.450;2024-02-14T05:04:12;8.10;99.90
19292;DHT22;9779;51.756;7.450;2024-02-14T05:06:38;8.10;99.90
19292;DHT22;9779;51.756;7.450;2024-02-14T05:09:04;8.10;99.90
19292;DHT22;9779;51.756;7.450;2024-02-14T05:11:30;8.10;99.90
19292;DHT22;9779;51.756;7.450;2024-02-14T05:13:56;8.10;99.90
19292;DHT22;9779;51.756;7.450;2024-02-14T05:16:21;8.20;99.90
19292;DHT22;9779;51.756;7.450;2024-02-14T05:18:47;8.20;99.90
19292;DHT22;9779;51.756;7.450;2024-02-14T05:21:13;8.20;99.90
19292;DHT22;9779;51.756;7.450;2024-02-14T05:23:39;8.30;99.90
19292;DHT22;9779;51.756;7.450;2024-02-14T05:26:04;8.30;99.90
19292;DHT22;9779;51.756;7.450;2024-02-14T05:28:30;8.30;99.90
19292;DHT22;9779;51.756;7.450;2024-02-14T05:30:56;8.30;99.90
19292;DHT22;9779;51.756;7.450;2024-02-14T05:33:22;8.30;99.90
19292;DHT22;9779;51.756;7.450;2024-02-14T05:35:49;8.30;99.90
19292;DHT22;9779;51.756;7.450;2024-02-14T05:38:14;8.40;99.90
19292;DHT22;9779;51.756;7.450;2024-02-14T05:40:40;8.40;99.90
19292;DHT22;9779;51.756;7.450;2024-02-14T05:43:09;8.30;99.90
19292;DHT22;9779;51.756;7.450;2024-02-14T05:45:35;8.40;99.90
19292;DHT22;9779;51.756;7.450;2024-02-14T05:48:00;8.40;99.90
19292;DHT22;9779;51.756;7.450;2024-02-14T05:50:26;8.40;99.90
19292;DHT22;9779;51.756;7.450;2024-02-14T05:52:52;8.40;99.90
19292;DHT22;9779;51.756;7.450;2024-02-14T05:55:17;8.40;99.90
19292;DHT22;9779;51.756;7.450;2024-02-14T05:57:43;8.50;99.90
19292;DHT22;9779;51.756;7.450;2024-02-14T06:00:10;8.50;99.90
19292;DHT22;9779;51.756;7.450;2024-02-14T06:02:36;8.50;99.90
19292;DHT22;9779;51.756;7.450;2024-02-14T06:05:02;8.50;99.90
19292;DHT22;9779;51.756;7.450;2024-02-14T06:07:28;8.50;99.90
19292;DHT22;9779;51.756;7.450;2024-02-14T06:09:53;8.50;99.90
19292;DHT22;9779;51.756;7.450;2024-02-14T06:12:19;8.50;99.90
19292;DHT22;9779;51.756;7.450;2024-02-14T06:14:49;8.50;99.90
19292;DHT22;9779;51.756;7.450;2024-02-14T06:17:14;8.50;99.90
19292;DHT22;9779;51.756;7.450;2024-02-14T06:19:40;8.60;99.90
19292;DHT22;9779;51.756;7.450;2024-02-14T06:22:09;8.60;99.90
19292;DHT22;9779;51.756;7.450;2024-02-14T06:24:36;8.60;99.90
19292;DHT22;9779;51.756;7.450;2024-02-14T06:27:01;8.60;99.90
19292;DHT22;9779;51.756;7.450;2024-02-14T06:29:27;8.60;99.90
19292;DHT22;9779;51.756;7.450;2024-02-14T06:31:52;8.70;99.90
19292;DHT22;9779;51.756;7.450;2024-02-14T06:34:19;8.60;99.90
19292;DHT22;9779;51.756;7.450;2024-02-14T06:36:46;8.70;99.90
19292;DHT22;9779;51.756;7.450;2024-02-14T06:39:12;8.60;99.90
19292;DHT22;9779;51.756;7.450;2024-02-14T06:41:38;8.70;99.90
19292;DHT22;9779;51.756;7.450;2024-02-14T06:44:04;8.70;99.90
19292;DHT22;9779;51.756;7.450;2024-02-14T06:46:30;8.70;99.90
19292;DHT22;9779;51.756;7.450;2024-02-14T06:48:56;8.70;99.90
19292;DHT22;9779;51.756;7.450;2024-02-14T06:51:22;8.70;99.90
19292;DHT22;9779;51.756;7.450;2024-02-14T06:53:49;8.70;99.90
19292;DHT22;9779;51.756;7.450;2024-02-14T06:56:15;8.70;99.90
19292;DHT22;9779;51.756;7.450;2024-02-14T06:58:41;8.70;99.90
19292;DHT22;9779;51.756;7.450;2024-02-14T07:01:06;8.70;99.90
19292;DHT22;9779;51.756;7.450;2024-02-14T07:03:32;8.70;99.90
19292;DHT22;9779;51.756;7.450;2024-02-14T07:05:58;8.70;99.90
19292;DHT22;9779;51.756;7.450;2024-02-14T07:08:24;8.70;99.90
19292;DHT22;9779;51.756;7.450;2024-02-14T07:10:52;8.70;99.90
19292;DHT22;9779;51.756;7.450;2024-02-14T07:13:18;8.70;99.90
19292;DHT22;9779;51.756;7.450;2024-02-14T07:15:43;8.70;99.90
19292;DHT22;9779;51.756;7.450;2024-02-14T07:18:09;8.70;99.90
19292;DHT22;9779;51.756;7.450;2024-02-14T07:20:35;8.70;99.90
19292;DHT22;9779;51.756;7.450;2024-02-14T07:23:01;8.70;99.90
19292;DHT22;9779;51.756;7.450;2024-02-14T07:25:27;8.70;99.90
19292;DHT22;9779;51.756;7.450;2024-02-14T07:27:52;8.70;99.90
19292;DHT22;9779;51.756;7.450;2024-02-14T07:30:18;8.70;99.90
19292;DHT22;9779;51.756;7.450;2024-02-14T07:32:44;8.80;99.90
19292;DHT22;9779;51.756;7.450;2024-02-14T07:35:11;8.80;99.90
19292;DHT22;9779;51.756;7.450;2024-02-14T07:37:39;8.80;99.90
19292;DHT22;9779;51.756;7.450;2024-02-14T07:40:05;8.80;99.90
19292;DHT22;9779;51.756;7.450;2024-02-14T07:42:31;8.80;99.90
19292;DHT22;9779;51.756;7.450;2024-02-14T07:44:57;8.80;99.90
19292;DHT22;9779;51.756;7.450;2024-02-14T07:47:23;8.80;99.90
19292;DHT22;9779;51.756;7.450;2024-02-14T07:49:48;8.80;99.90
19292;DHT22;9779;51.756;7.450;2024-02-14T07:52:14;8.80;99.90
19292;DHT22;9779;51.756;7.450;2024-02-14T07:54:39;8.80;99.90
19292;DHT22;9779;51.756;7.450;2024-02-14T07:57:05;8.90;99.90
19292;DHT22;9779;51.756;7.450;2024-02-14T07:59:31;8.80;99.90
19292;DHT22;9779;51.756;7.450;2024-02-14T08:01:56;8.80;99.90
19292;DHT22;9779;51.756;7.450;2024-02-14T08:04:22;8.90;99.90
19292;DHT22;9779;51.756;7.450;2024-02-14T08:06:48;8.90;99.90
19292;DHT22;9779;51.756;7.450;2024-02-14T08:09:17;8.90;99.90
19292;DHT22;9779;51.756;7.450;2024-02-14T08:11:43;8.90;99.90
19292;DHT22;9779;51.756;7.450;2024-02-14T08:14:08;8.90;99.90
19292;DHT22;9779;51.756;7.450;2024-02-14T08:16:34;8.90;99.90
19292;DHT22;9779;51.756;7.450;2024-02-14T08:19:01;8.90;99.90
19292;DHT22;9779;51.756;7.450;2024-02-14T08:21:28;8.90;99.90
19292;DHT22;9779;51.756;7.450;2024-02-14T08:23:54;8.90;99.90
19292;DHT22;9779;51.756;7.450;2024-02-14T08:26:21;9.00;99.90
19292;DHT22;9779;51.756;7.450;2024-02-14T08:28:48;9.00;99.90
19292;DHT22;9779;51.756;7.450;2024-02-14T08:31:14;9.00;99.90
19292;DHT22;9779;51.756;7.450;2024-02-14T08:33:39;9.00;99.90
19292;DHT22;9779;51.756;7.450;2024-02-14T08:36:06;9.00;99.90
19292;DHT22;9779;51.756;7.450;2024-02-14T08:38:32;9.10;99.90
19292;DHT22;9779;51.756;7.450;2024-02-14T08:40:58;9.10;99.90
19292;DHT22;9779;51.756;7.450;2024-02-14T08:43:24;9.10;99.90
19292;DHT22;9779;51.756;7.450;2024-02-14T08:45:54;9.10;99.90
19292;DHT22;9779;51.756;7.450;2024-02-14T08:48:20;9.10;99.90
19292;DHT22;9779;51.756;7.450;2024-02-14T08:50:46;9.10;99.90
19292;DHT22;9779;51.756;7.450;2024-02-14T08:53:12;9.20;99.90
19292;DHT22;9779;51.756;7.450;2024-02-14T08:55:40;9.20;99.90
19292;DHT22;9779;51.756;7.450;2024-02-14T08:58:06;9.20;99.90
19292;DHT22;9779;51.756;7.450;2024-02-14T09:00:31;9.20;99.90
19292;DHT22;9779;51.756;7.450;2024-02-14T09:03:00;9.20;99.90
19292;DHT22;9779;51.756;7.450;2024-02-14T09:05:26;9.30;99.90
19292;DHT22;9779;51.756;7.450;2024-02-14T09:07:54;9.30;99.90
19292;DHT22;9779;51.756;7.450;2024-02-14T09:10:19;9.30;99.90
19292;DHT22;9779;51.756;7.450;2024-02-14T09:12:45;9.30;99.90
19292;DHT22;9779;51.756;7.450;2024-02-14T09:15:11;9.30;99.90
19292;DHT22;9779;51.756;7.450;2024-02-14T09:17:37;9.30;99.90
19292;DHT22;9779;51.756;7.450;2024-02-14T09:20:05;9.40;99.90
19292;DHT22;9779;51.756;7.450;2024-02-14T09:22:35;9.40;99.90
19292;DHT22;9779;51.756;7.450;2024-02-14T09:25:01;9.40;99.90
19292;DHT22;9779;51.756;7.450;2024-02-14T09:27:30;9.40;99.90
19292;DHT22;9779;51.756;7.450;2024-02-14T09:29:56;9.40;99.90
19292;DHT22;9779;51.756;7.450;2024-02-14T09:32:21;9.40;99.90
19292;DHT22;9779;51.756;7.450;2024-02-14T09:34:47;9.40;99.90
19292;DHT22;9779;51.756;7.450;2024-02-14T09:37:13;9.50;99.90
19292;DHT22;9779;51.756;7.450;2024-02-14T09:39:39;9.50;99.90
19292;DHT22;9779;51.756;7.450;2024-02-14T09:42:09;9.50;99.90
19292;DHT22;9779;51.756;7.450;2024-02-14T09:44:35;9.50;99.90
19292;DHT22;9779;51.756;7.450;2024-02-14T09:47:04;9.50;99.90
19292;DHT22;9779;51.756;7.450;2024-02-14T09:49:31;9.60;99.90
19292;DHT22;9779;51.756;7.450;2024-02-14T09:51:59;9.60;99.90
19292;DHT22;9779;51.756;7.450;2024-02-14T09:54:26;9.60;99.90
19292;DHT22;9779;51.756;7.450;2024-02-14T09:56:52;9.60;99.90
19292;DHT22;9779;51.756;7.450;2024-02-14T09:59:22;9.70;99.90
19292;DHT22;9779;51.756;7.450;2024-02-14T10:01:48;9.70;99.90
19292;DHT22;9779;51.756;7.450;2024-02-14T10:04:16;9.70;99.90
19292;DHT22;9779;51.756;7.450;2024-02-14T10:06:43;9.80;99.90
19292;DHT22;9779;51.756;7.450;2024-02-14T10:09:08;9.80;99.90
19292;DHT22;9779;51.756;7.450;2024-02-14T10:11:35;9.80;99.90
19292;DHT22;9779;51.756;7.450;2024-02-14T10:14:02;9.80;99.90
19292;DHT22;9779;51.756;7.450;2024-02-14T10:16:29;9.80;99.90
19292;DHT22;9779;51.756;7.450;2024-02-14T10:18:55;9.80;99.90
19292;DHT22;9779;51.756;7.450;2024-02-14T10:21:21;9.80;99.90
19292;DHT22;9779;51.756;7.450;2024-02-14T10:23:47;9.80;99.90
19292;DHT22;9779;51.756;7.450;2024-02-14T10:26:17;9.80;99.90
19292;DHT22;9779;51.756;7.450;2024-02-14T10:28:43;9.80;99.90
19292;DHT22;9779;51.756;7.450;2024-02-14T10:31:12;9.80;99.90
19292;DHT22;9779;51.756;7.450;2024-02-14T10:33:38;9.70;99.90
19292;DHT22;9779;51.756;7.450;2024-02-14T10:36:07;9.80;99.90
19292;DHT22;9779;51.756;7.450;2024-02-14T10:38:34;9.70;99.90
19292;DHT22;9779;51.756;7.450;2024-02-14T10:41:01;9.80;99.90
19292;DHT22;9779;51.756;7.450;2024-02-14T10:43:27;9.80;99.90
19292;DHT22;9779;51.756;7.450;2024-02-14T10:45:57;9.70;99.90
19292;DHT22;9779;51.756;7.450;2024-02-14T10:48:24;9.80;99.90
19292;DHT22;9779;51.756;7.450;2024-02-14T10:50:53;9.80;99.90
19292;DHT22;9779;51.756;7.450;2024-02-14T10:53:19;9.80;99.90
19292;DHT22;9779;51.756;7.450;2024-02-14T10:55:48;9.80;99.90
19292;DHT22;9779;51.756;7.450;2024-02-14T10:58:16;9.80;99.90
19292;DHT22;9779;51.756;7.450;2024-02-14T11:00:42;9.80;99.90
19292;DHT22;9779;51.756;7.450;2024-02-14T11:03:08;9.80;99.90
19292;DHT22;9779;51.756;7.450;2024-02-14T11:05:48;9.80;99.90
19292;DHT22;9779;51.756;7.450;2024-02-14T11:08:18;9.80;99.90
19292;DHT22;9779;51.756;7.450;2024-02-14T11:10:55;9.80;99.90
19292;DHT22;9779;51.756;7.450;2024-02-14T11:13:28;9.80;99.90
19292;DHT22;9779;51.756;7.450;2024-02-14T11:15:54;9.80;99.90
19292;DHT22;9779;51.756;7.450;2024-02-14T11:18:27;9.80;99.90
19292;DHT22;9779;51.756;7.450;2024-02-14T11:20:55;9.80;99.90
19292;DHT22;9779;51.756;7.450;2024-02-14T11:23:23;9.80;99.90
19292;DHT22;9779;51.756;7.450;2024-02-14T11:25:49;9.80;99.90
19292;DHT22;9779;51.756;7.450;2024-02-14T11:28:16;9.80;99.90
19292;DHT22;9779;51.756;7.450;2024-02-14T11:30:43;9.80;99.90
19292;DHT22;9779;51.756;7.450;2024-02-14T11:33:18;9.80;99.90
19292;DHT22;9779;51.756;7.450;2024-02-14T11:35:49;9.90;99.90
19292;DHT22;9779;51.756;7.450;2024-02-14T11:38:17;9.90;99.90
19292;DHT22;9779;51.756;7.450;2024-02-14T11:40:43;9.90;99.90
19292;DHT22;9779;51.756;7.450;2024-02-14T11:43:17;9.90;99.90
19292;DHT22;9779;51.756;7.450;2024-02-14T11:45:43;9.90;99.90
19292;DHT22;9779;51.756;7.450;2024-02-14T11:48:14;9.90;99.90
19292;DHT22;9779;51.756;7.450;2024-02-14T11:50:41;9.90;99.90
19292;DHT22;9779;51.756;7.450;2024-02-14T11:53:07;10.00;99.90
19292;DHT22;9779;51.756;7.450;2024-02-14T11:55:37;10.00;99.90
19292;DHT22;9779;51.756;7.450;2024-02-14T11:58:13;10.00;99.90
19292;DHT22;9779;51.756;7.450;2024-02-14T12:00:40;10.00;99.90
19292;DHT22;9779;51.756;7.450;2024-02-14T12:03:32;10.00;99.90
19292;DHT22;9779;51.756;7.450;2024-02-14T12:05:58;10.00;99.90
19292;DHT22;9779;51.756;7.450;2024-02-14T12:08:24;10.00;99.90
19292;DHT22;9779;51.756;7.450;2024-02-14T12:10:49;10.00;99.90
19292;DHT22;9779;51.756;7.450;2024-02-14T12:13:17;10.10;99.90
19292;DHT22;9779;51.756;7.450;2024-02-14T12:15:47;10.10;99.90
19292;DHT22;9779;51.756;7.450;2024-02-14T12:18:13;10.10;99.90
19292;DHT22;9779;51.756;7.450;2024-02-14T12:20:39;10.10;99.90
19292;DHT22;9779;51.756;7.450;2024-02-14T12:23:05;10.20;99.90
19292;DHT22;9779;51.756;7.450;2024-02-14T12:25:31;10.20;99.90
19292;DHT22;9779;51.756;7.450;2024-02-14T12:27:57;10.20;99.90
19292;DHT22;9779;51.756;7.450;2024-02-14T12:30:45;10.20;99.90
19292;DHT22;9779;51.756;7.450;2024-02-14T12:33:12;10.20;99.90
19292;DHT22;9779;51.756;7.450;2024-02-14T12:35:41;10.30;99.90
19292;DHT22;9779;51.756;7.450;2024-02-14T12:38:08;10.30;99.90
19292;DHT22;9779;51.756;7.450;2024-02-14T12:40:38;10.30;99.90
19292;DHT22;9779;51.756;7.450;2024-02-14T12:43:03;10.30;99.90
19292;DHT22;9779;51.756;7.450;2024-02-14T12:45:31;10.30;99.90
19292;DHT22;9779;51.756;7.450;2024-02-14T12:47:57;10.30;99.90
19292;DHT22;9779;51.756;7.450;2024-02-14T12:50:22;10.30;99.90
19292;DHT22;9779;51.756;7.450;2024-02-14T12:52:48;10.40;99.90
19292;DHT22;9779;51.756;7.450;2024-02-14T12:55:14;10.40;99.90
19292;DHT22;9779;51.756;7.450;2024-02-14T12:57:40;10.60;99.90
19292;DHT22;9779;51.756;7.450;2024-02-14T13:00:06;10.60;99.90
19292;DHT22;9779;51.756;7.450;2024-02-14T13:02:35;10.60;99.90
19292;DHT22;9779;51.756;7.450;2024-02-14T13:05:00;10.60;99.90
19292;DHT22;9779;51.756;7.450;2024-02-14T13:07:28;10.60;99.90
19292;DHT22;9779;51.756;7.450;2024-02-14T13:09:53;10.60;99.90
19292;DHT22;9779;51.756;7.450;2024-02-14T13:12:20;10.60;99.90
19292;DHT22;9779;51.756;7.450;2024-02-14T13:14:46;10.50;99.90
19292;DHT22;9779;51.756;7.450;2024-02-14T13:17:12;10.60;99.90
19292;DHT22;9779;51.756;7.450;2024-02-14T13:19:38;10.60;99.90
19292;DHT22;9779;51.756;7.450;2024-02-14T13:22:05;10.60;99.90
19292;DHT22;9779;51.756;7.450;2024-02-14T13:24:31;10.60;99.90
19292;DHT22;9779;51.756;7.450;2024-02-14T13:26:56;10.60;99.90
19292;DHT22;9779;51.756;7.450;2024-02-14T13:29:23;10.60;99.90
19292;DHT22;9779;51.756;7.450;2024-02-14T13:31:50;10.60;99.90
19292;DHT22;9779;51.756;7.450;2024-02-14T13:34:16;10.70;99.90
19292;DHT22;9779;51.756;7.450;2024-02-14T13:36:42;10.70;99.90
19292;DHT22;9779;51.756;7.450;2024-02-14T13:39:08;10.70;99.90
19292;DHT22;9779;51.756;7.450;2024-02-14T13:41:33;10.60;99.90
19292;DHT22;9779;51.756;7.450;2024-02-14T13:44:01;10.70;99.90
19292;DHT22;9779;51.756;7.450;2024-02-14T13:46:27;10.70;99.90
19292;DHT22;9779;51.756;7.450;2024-02-14T13:48:52;10.60;99.90
19292;DHT22;9779;51.756;7.450;2024-02-14T13:51:18;10.60;99.90
19292;DHT22;9779;51.756;7.450;2024-02-14T13:53:44;10.60;99.90
19292;DHT22;9779;51.756;7.450;2024-02-14T13:56:09;10.60;99.90
19292;DHT22;9779;51.756;7.450;2024-02-14T13:58:35;10.60;99.90
19292;DHT22;9779;51.756;7.450;2024-02-14T14:01:04;10.60;99.90
19292;DHT22;9779;51.756;7.450;2024-02-14T14:03:29;10.60;99.90
19292;DHT22;9779;51.756;7.450;2024-02-14T14:05:56;10.60;99.90
19292;DHT22;9779;51.756;7.450;2024-02-14T14:08:23;10.60;99.90
19292;DHT22;9779;51.756;7.450;2024-02-14T14:10:48;10.60;99.90
19292;DHT22;9779;51.756;7.450;2024-02-14T14:13:14;10.60;99.90
19292;DHT22;9779;51.756;7.450;2024-02-14T14:15:40;10.60;99.90
19292;DHT22;9779;51.756;7.450;2024-02-14T14:18:06;10.60;99.90
19292;DHT22;9779;51.756;7.450;2024-02-14T14:20:34;10.60;99.90
19292;DHT22;9779;51.756;7.450;2024-02-14T14:22:59;10.60;99.90
19292;DHT22;9779;51.756;7.450;2024-02-14T14:25:25;10.60;99.90
19292;DHT22;9779;51.756;7.450;2024-02-14T14:27:58;10.60;99.90
19292;DHT22;9779;51.756;7.450;2024-02-14T14:30:25;10.70;99.90
19292;DHT22;9779;51.756;7.450;2024-02-14T14:32:51;10.60;99.90
19292;DHT22;9779;51.756;7.450;2024-02-14T14:35:16;10.60;99.90
19292;DHT22;9779;51.756;7.450;2024-02-14T14:37:42;10.70;99.90
19292;DHT22;9779;51.756;7.450;2024-02-14T14:40:08;10.70;99.90
19292;DHT22;9779;51.756;7.450;2024-02-14T14:42:36;10.70;99.90
19292;DHT22;9779;51.756;7.450;2024-02-14T14:45:01;10.70;99.90
19292;DHT22;9779;51.756;7.450;2024-02-14T14:47:28;10.70;99.90
19292;DHT22;9779;51.756;7.450;2024-02-14T14:49:54;10.70;99.90
19292;DHT22;9779;51.756;7.450;2024-02-14T14:52:20;10.70;99.90
19292;DHT22;9779;51.756;7.450;2024-02-14T14:54:45;10.70;99.90
19292;DHT22;9779;51.756;7.450;2024-02-14T14:57:11;10.70;99.90
19292;DHT22;9779;51.756;7.450;2024-02-14T14:59:41;10.70;99.90
19292;DHT22;9779;51.756;7.450;2024-02-14T15:02:10;10.70;99.90
19292;DHT22;9779;51.756;7.450;2024-02-14T15:04:35;10.70;99.90
19292;DHT22;9779;51.756;7.450;2024-02-14T15:07:03;10.70;99.90
19292;DHT22;9779;51.756;7.450;2024-02-14T15:09:28;10.70;99.90
19292;DHT22;9779;51.756;7.450;2024-02-14T15:11:54;10.70;99.90
19292;DHT22;9779;51.756;7.450;2024-02-14T15:14:22;10.70;99.90
19292;DHT22;9779;51.756;7.450;2024-02-14T15:16:47;10.70;99.90
19292;DHT22;9779;51.756;7.450;2024-02-14T15:19:13;10.70;99.90
19292;DHT22;9779;51.756;7.450;2024-02-14T15:21:39;10.70;99.90
19292;DHT22;9779;51.756;7.450;2024-02-14T15:24:05;10.70;99.90
19292;DHT22;9779;51.756;7.450;2024-02-14T15:26:32;10.70;99.90
19292;DHT22;9779;51.756;7.450;2024-02-14T15:29:17;10.70;99.90
19292;DHT22;9779;51.756;7.450;2024-02-14T15:32:02;10.70;99.90
19292;DHT22;9779;51.756;7.450;2024-02-14T15:34:46;10.70;99.90
19292;DHT22;9779;51.756;7.450;2024-02-14T15:37:12;10.70;99.90
19292;DHT22;9779;51.756;7.450;2024-02-14T15:39:38;10.70;99.90
19292;DHT22;9779;51.756;7.450;2024-02-14T15:42:04;10.60;99.90
19292;DHT22;9779;51.756;7.450;2024-02-14T15:44:29;10.60;99.90
19292;DHT22;9779;51.756;7.450;2024-02-14T15:46:55;10.60;99.90
19292;DHT22;9779;51.756;7.450;2024-02-14T15:49:21;10.70;99.90
19292;DHT22;9779;51.756;7.450;2024-02-14T15:51:46;10.60;99.90
19292;DHT22;9779;51.756;7.450;2024-02-14T15:54:13;10.60;99.90